Hartington, NE

10:41 PM CDT on July 30, 2014 (GMT -0500)
Gurney Municipal (KYKN) Elev 1306 ft | 42.92 °N, 97.39 °W | Change Station

Current weather conditions updated 6 minutes ago

Clear
Clear
66 °F
Feels Like 66 °F
N
0
Wind Variable Wind from North

Tomorrow is forecast to be Warmer than today.

Today
High -- | Low -- °F
--% Chance of Precip.
Yesterday
High -- | Low -- °F
Precip. -- in
6:18 AM 8:51 PM
Waxing Crescent, 15% visible
Pressure 30.11 in
Visibility 10.0 miles
Clouds Clear
Dew Point 55 °F
Humidity 68%
Rainfall 0.00 in
Snow Depth Not available.
UV 0 out of 12
Pollen 6.30 out of 12
Air Quality Not available.
Flu Activity Not available.
METAR KYKN 310335Z AUTO 00000KT 10SM CLR 19/13 A3011 RMK AO1

More Conditions Fewer Conditions

Pressure 30.11 in
Visibility 10.0 miles
Clouds Clear
Dew Point 55 °F
Humidity 68%
Rainfall 0.00 in
Snow Depth Not available.
UV 0 out of 12
Pollen 6.30 out of 12
Air Quality Not available.
Flu Activity Not available.
METAR KYKN 310335Z AUTO 00000KT 10SM CLR 19/13 A3011 RMK AO1

More Conditions Fewer Conditions

10-Day Weather Forecast

Almanac

Astronomy

Jul. 30, 2014 Rise Set
Actual Time 6:18 AM CDT 8:51 PM CDT
Civil Twilight 5:46 AM CDT 9:23 PM CDT
Nautical Twilight 5:06 AM CDT 10:03 PM CDT
Astronomical Twilight 4:21 AM CDT 10:48 PM CDT
Moon 9:57 AM CDT (7/30) 10:28 PM CDT (7/30)
Length of Visible Light 15h 36m
Length of Day
14h 32m
Tomorrow will be 2m 9s shorter.
Waxing Crescent, 15% of the Moon is Illuminated
Today
Waxing Crescent
Aug 3
First Quarter
Aug 10
Full
Aug 17
Last Quarter
Aug 25
New

Today's Extremes

State Highs State Lows

Community

WunderPhotos

Upload Photos

1,739,279 photos uploaded!

Nearby

Snow Depth

Station Depth Elevation
No new snow has been reported.

Earthquake Activity

City Distance Mag. Time & Date
No recent earthquake activity has been reported nearby.
Minimum magnitude displayed is 2.5.

Coastal Water Temperatures

Place Temperature
No Stations Reporting

Nearby Weather Stations

There are no personal weather stations in this area.